createdAt,value
2022-08-07T00:01:43.895Z,100.00
2022-08-07T00:06:32.932Z,100.00
2022-08-07T00:11:39.967Z,100.00
2022-08-07T00:16:56.883Z,100.00
2022-08-07T00:22:01.901Z,100.00
2022-08-07T00:27:07.561Z,99.39
2022-08-07T00:32:14.270Z,97.58
2022-08-07T00:37:17.923Z,95.61
2022-08-07T00:42:28.951Z,94.01
2022-08-07T00:48:09.587Z,92.01
2022-08-07T00:52:55.362Z,89.31
2022-08-07T00:57:58.274Z,86.15
2022-08-07T01:03:01.400Z,85.41
2022-08-07T01:08:04.340Z,85.44
2022-08-07T01:13:07.191Z,84.78
2022-08-07T01:18:09.992Z,84.03
2022-08-07T01:23:15.783Z,83.92
2022-08-07T01:28:19.556Z,83.50
2022-08-07T01:33:25.429Z,83.39
2022-08-07T01:38:48.834Z,83.31
2022-08-07T01:43:58.744Z,83.49
2022-08-07T01:49:02.466Z,83.27
2022-08-07T01:54:19.208Z,83.14
2022-08-07T01:59:57.664Z,82.83
2022-08-07T02:05:16.126Z,82.57
2022-08-07T02:10:37.299Z,82.36
2022-08-07T02:16:08.421Z,82.11
2022-08-07T02:21:17.768Z,81.94
2022-08-07T02:26:33.937Z,82.10
2022-08-07T02:31:39.085Z,82.11
2022-08-07T02:36:45.120Z,81.76
2022-08-07T02:41:54.905Z,81.22
2022-08-07T02:47:01.102Z,80.34
2022-08-07T02:52:10.627Z,80.09
2022-08-07T02:57:20.136Z,79.93
2022-08-07T03:02:25.809Z,79.76
2022-08-07T03:07:43.114Z,79.45
2022-08-07T03:12:55.657Z,79.02
2022-08-07T03:17:59.366Z,78.02
2022-08-07T03:23:03.941Z,77.56
2022-08-07T03:28:37.980Z,76.95
2022-08-07T03:33:40.094Z,76.45
2022-08-07T03:38:47.194Z,75.80
2022-08-07T03:43:57.300Z,74.73
2022-08-07T03:49:05.396Z,73.75
2022-08-07T03:54:36.096Z,72.02
2022-08-07T03:59:46.511Z,70.88
2022-08-07T04:05:02.763Z,68.79
2022-08-07T04:10:06.214Z,66.96
2022-08-07T04:15:19.678Z,65.92
2022-08-07T04:20:27.544Z,65.85
2022-08-07T04:25:31.583Z,65.25
2022-08-07T04:30:55.613Z,63.73
2022-08-07T04:36:09.250Z,62.00
2022-08-07T04:41:18.200Z,61.66
2022-08-07T04:46:59.214Z,60.20
2022-08-07T04:52:26.510Z,59.87
2022-08-07T04:58:31.447Z,59.46
2022-08-07T05:04:06.647Z,59.85
2022-08-07T05:09:28.053Z,58.87
2022-08-07T05:14:59.237Z,59.08
2022-08-07T05:20:09.946Z,58.35
2022-08-07T05:25:36.519Z,58.60
2022-08-07T05:30:41.797Z,58.77
2022-08-07T05:35:46.230Z,59.02
2022-08-07T05:40:51.906Z,59.89
2022-08-07T05:45:58.449Z,60.64
2022-08-07T05:51:03.411Z,60.57
2022-08-07T05:56:13.129Z,60.43
2022-08-07T06:01:25.932Z,60.11
2022-08-07T06:06:32.501Z,59.94
2022-08-07T06:11:39.846Z,59.41
2022-08-07T06:16:50.674Z,59.56
2022-08-07T06:22:15.375Z,59.26
2022-08-07T06:28:00.171Z,58.98
2022-08-07T06:32:50.819Z,59.18
2022-08-07T06:37:54.853Z,58.85
2022-08-07T06:42:59.144Z,58.12
2022-08-07T06:48:15.324Z,58.11
2022-08-07T06:54:11.835Z,57.04
2022-08-07T07:00:14.774Z,56.23
2022-08-07T07:04:32.435Z,56.26
2022-08-07T07:09:36.278Z,56.18
2022-08-07T07:14:51.565Z,55.63
2022-08-07T07:19:59.176Z,55.66
2022-08-07T07:26:31.183Z,54.69
2022-08-07T07:30:38.745Z,54.36
2022-08-07T07:36:04.555Z,53.74
2022-08-07T07:41:09.646Z,53.92
2022-08-07T07:46:40.606Z,53.98
2022-08-07T07:51:58.406Z,54.14
2022-08-07T07:57:01.441Z,53.92
2022-08-07T08:02:10.818Z,52.96
2022-08-07T08:07:14.284Z,52.86
2022-08-07T08:12:51.580Z,52.21
2022-08-07T08:17:57.484Z,51.79
2022-08-07T08:23:20.656Z,52.22
2022-08-07T08:28:38.490Z,51.93
2022-08-07T08:33:43.823Z,51.84
2022-08-07T08:38:53.159Z,51.65
2022-08-07T08:44:03.694Z,50.91
2022-08-07T08:49:33.445Z,51.09
2022-08-07T08:55:12.340Z,51.33
2022-08-07T09:00:24.551Z,51.24
2022-08-07T09:05:39.272Z,51.01
2022-08-07T09:10:45.292Z,50.30
2022-08-07T09:16:26.575Z,49.94
2022-08-07T09:22:10.294Z,50.86
2022-08-07T09:27:20.661Z,50.84
2022-08-07T09:32:58.466Z,51.42
2022-08-07T09:38:40.816Z,51.97
2022-08-07T09:44:06.585Z,50.98
2022-08-07T09:50:02.147Z,50.96
2022-08-07T09:55:36.916Z,50.22
2022-08-07T10:00:47.102Z,49.35
2022-08-07T10:06:12.018Z,49.06
2022-08-07T10:12:02.432Z,50.14
2022-08-07T10:17:33.731Z,50.26
2022-08-07T10:24:05.312Z,50.06
2022-08-07T10:29:04.423Z,49.01
2022-08-07T10:34:45.144Z,48.62
2022-08-07T10:40:08.847Z,48.16
2022-08-07T10:45:44.541Z,49.21
2022-08-07T10:50:52.801Z,49.08
2022-08-07T10:56:30.962Z,49.69
2022-08-07T11:02:12.402Z,50.14
2022-08-07T11:08:20.983Z,51.53
2022-08-07T11:14:46.407Z,51.68
2022-08-07T11:19:39.070Z,51.40
2022-08-07T11:25:00.226Z,50.53
2022-08-07T11:30:18.422Z,49.12
2022-08-07T11:35:26.972Z,48.88
2022-08-07T11:40:56.792Z,50.17
2022-08-07T11:46:28.150Z,51.81
2022-08-07T11:51:57.911Z,52.76
2022-08-07T11:58:00.467Z,53.46
2022-08-07T12:03:44.588Z,54.73
2022-08-07T12:08:54.365Z,56.04
2022-08-07T12:14:21.998Z,56.90
2022-08-07T12:19:35.753Z,57.59
2022-08-07T12:26:05.376Z,57.99
2022-08-07T12:30:57.376Z,58.27
2022-08-07T12:36:15.844Z,58.89
2022-08-07T12:41:20.315Z,59.29
2022-08-07T12:47:21.762Z,59.77
2022-08-07T12:52:35.706Z,59.37
2022-08-07T12:58:01.445Z,58.98
2022-08-07T13:03:27.120Z,58.68
2022-08-07T13:09:33.416Z,58.58
2022-08-07T13:14:51.283Z,58.49
2022-08-07T13:20:10.469Z,58.79
2022-08-07T13:25:29.571Z,59.74
2022-08-07T13:30:40.307Z,61.80
2022-08-07T13:36:17.816Z,63.01
2022-08-07T13:41:32.366Z,63.65
2022-08-07T13:46:49.529Z,64.95
2022-08-07T13:52:19.048Z,66.16
2022-08-07T13:57:24.086Z,67.28
2022-08-07T14:02:33.482Z,68.51
2022-08-07T14:08:00.028Z,68.97
2022-08-07T14:13:05.679Z,69.76
2022-08-07T14:18:28.703Z,70.85
2022-08-07T14:24:00.262Z,71.71
2022-08-07T14:34:30.631Z,73.37
2022-08-07T14:40:17.170Z,74.44
2022-08-07T14:45:20.868Z,74.94
2022-08-07T14:50:31.607Z,75.76
2022-08-07T14:55:55.545Z,76.86
2022-08-07T15:00:59.843Z,75.33
2022-08-07T15:06:25.644Z,75.44
2022-08-07T15:17:00.451Z,75.48
2022-08-07T15:22:07.865Z,75.67
2022-08-07T15:33:01.368Z,76.24
2022-08-07T15:38:29.775Z,76.95
2022-08-07T15:43:53.175Z,77.16
2022-08-07T15:49:04.006Z,78.01
2022-08-07T15:54:19.959Z,78.48
2022-08-07T15:59:37.973Z,79.27
2022-08-07T16:04:43.992Z,79.33
2022-08-07T16:09:54.741Z,79.71
2022-08-07T16:15:57.233Z,80.38
2022-08-07T16:22:01.242Z,80.62
2022-08-07T16:26:30.938Z,80.84
2022-08-07T16:31:58.272Z,81.28
2022-08-07T16:38:03.023Z,81.52
2022-08-07T16:43:03.833Z,81.62
2022-08-07T16:49:10.491Z,81.14
2022-08-07T16:54:32.664Z,80.99
2022-08-07T16:59:52.696Z,80.60
2022-08-07T17:06:01.997Z,80.75
2022-08-07T17:10:54.553Z,81.27
2022-08-07T17:16:18.095Z,81.38
2022-08-07T17:21:51.255Z,81.37
2022-08-07T17:27:09.421Z,80.81
2022-08-07T17:32:35.698Z,80.46
2022-08-07T17:38:09.296Z,80.12
2022-08-07T17:44:01.370Z,79.89
2022-08-07T17:49:02.604Z,79.04
2022-08-07T17:54:29.695Z,78.95
2022-08-07T17:59:45.623Z,78.94
2022-08-07T18:05:20.699Z,79.78
2022-08-07T18:12:06.329Z,80.18
2022-08-07T18:16:30.788Z,80.62
2022-08-07T18:22:00.472Z,81.26
2022-08-07T18:27:40.339Z,81.48
2022-08-07T18:33:20.508Z,81.65
2022-08-07T18:38:59.166Z,81.63
2022-08-07T18:44:10.793Z,81.96
2022-08-07T18:50:32.560Z,82.63
2022-08-07T18:55:40.746Z,83.22
2022-08-07T19:00:54.445Z,84.17
2022-08-07T19:06:21.861Z,85.18
2022-08-07T19:11:39.693Z,85.93
2022-08-07T19:17:55.909Z,87.03
2022-08-07T19:22:38.424Z,87.87
2022-08-07T19:28:30.911Z,89.26
2022-08-07T19:33:15.341Z,89.92
2022-08-07T19:38:22.595Z,89.93
2022-08-07T19:43:44.236Z,90.77
2022-08-07T19:48:59.600Z,91.30
2022-08-07T19:54:32.176Z,91.63
2022-08-07T19:59:41.294Z,91.54
2022-08-07T20:04:48.981Z,89.93
2022-08-07T20:10:35.427Z,89.33
2022-08-07T20:15:22.064Z,88.72
2022-08-07T20:20:27.089Z,89.14
2022-08-07T20:25:33.549Z,89.14
2022-08-07T20:30:46.815Z,89.02
2022-08-07T20:35:51.908Z,89.18
2022-08-07T20:41:03.782Z,89.09
2022-08-07T20:46:28.721Z,89.22
2022-08-07T20:51:35.901Z,88.65
2022-08-07T20:56:46.222Z,88.73
2022-08-07T21:01:55.113Z,88.55
2022-08-07T21:07:04.485Z,88.62
2022-08-07T21:12:28.661Z,88.48
2022-08-07T21:18:03.823Z,88.79
2022-08-07T21:23:08.169Z,89.19
2022-08-07T21:28:49.759Z,89.18
2022-08-07T21:34:21.922Z,89.61
2022-08-07T21:39:51.898Z,89.30
2022-08-07T21:46:08.986Z,89.16
2022-08-07T21:50:39.452Z,88.87
2022-08-07T21:56:16.752Z,88.77
2022-08-07T22:02:10.210Z,88.71
2022-08-07T22:07:22.853Z,88.55
2022-08-07T22:12:54.573Z,88.58
2022-08-07T22:18:29.444Z,88.36
2022-08-07T22:23:52.070Z,88.23
2022-08-07T22:29:03.834Z,87.79
2022-08-07T22:34:41.171Z,87.58
2022-08-07T22:40:05.223Z,87.40
2022-08-07T22:45:21.753Z,87.37
2022-08-07T22:50:50.308Z,87.58
2022-08-07T22:56:08.907Z,87.70
2022-08-07T23:01:23.909Z,87.22
2022-08-07T23:06:49.974Z,86.93
2022-08-07T23:12:32.703Z,86.68
2022-08-07T23:17:54.964Z,86.19
2022-08-07T23:24:05.608Z,85.71
2022-08-07T23:29:43.954Z,85.01
2022-08-07T23:35:04.644Z,84.53
2022-08-07T23:40:31.369Z,84.20
2022-08-07T23:46:03.099Z,83.57
2022-08-07T23:52:59.709Z,83.24
2022-08-07T23:57:34.860Z,82.81
